O57 weather

Bryant Field
Bridgeport, California, United States

Public forecast

Using degrees Fahrenheit for public forecast. Weather courtesy of forecast.io.

METAR (pilot weather report)

Closest report is Mammoth Yosemite Airport, 42.5 nm (78.7 km) SSE. Retrieved 2019/07/21 23:35 UTC (0 seconds ago):

KMMH 212335Z AUTO 28018G23KT 10SM CLR 28/03 A3025 RMK AO2 T02810029

TAF (pilot weather forecast)

Closest forecast is Mammoth Yosemite Airport, 42.5 nm (78.7 km) SSE. Retrieved 2019/07/21 18:22 UTC (5 hours ago):

TAF KMMH 211720Z 2118/2218 12006KT P6SM SKC FM212200 28010G18KT P6SM SCT080 BKN120 FM220400 VRB03KT P6SM BKN140 FM221600 12006KT P6SM SCT140